createdAt,value
2019-02-15T00:00:17.870Z,22.20
2019-02-15T00:05:12.470Z,21.47
2019-02-15T00:10:07.727Z,21.00
2019-02-15T00:15:02.304Z,25.77
2019-02-15T00:20:01.075Z,24.43
2019-02-15T00:24:55.672Z,21.90
2019-02-15T00:29:50.354Z,21.97
2019-02-15T00:34:44.944Z,22.27
2019-02-15T00:39:39.541Z,23.50
2019-02-15T00:44:34.149Z,25.03
2019-02-15T00:49:30.378Z,23.97
2019-02-15T00:54:32.713Z,23.03
2019-02-15T00:59:31.798Z,22.83
2019-02-15T01:04:31.628Z,22.93
2019-02-15T01:09:36.373Z,20.83
2019-02-15T01:14:30.969Z,21.83
2019-02-15T01:19:25.548Z,22.57
2019-02-15T01:24:20.223Z,22.10
2019-02-15T01:29:19.235Z,23.33
2019-02-15T01:34:16.331Z,25.37
2019-02-15T01:39:13.133Z,22.77
2019-02-15T01:44:12.043Z,23.63
2019-02-15T01:49:06.630Z,21.97
2019-02-15T01:54:01.259Z,23.60
2019-02-15T01:58:55.862Z,21.30
2019-02-15T02:03:50.535Z,20.67
2019-02-15T02:08:45.136Z,21.57
2019-02-15T02:13:48.994Z,21.07
2019-02-15T02:18:36.072Z,20.57
2019-02-15T02:23:30.678Z,21.03
2019-02-15T02:28:25.279Z,20.17
2019-02-15T02:33:19.861Z,22.40
2019-02-15T02:38:14.457Z,21.67
2019-02-15T02:43:09.051Z,20.90
2019-02-15T02:48:03.640Z,35.77
2019-02-15T02:52:58.272Z,21.27
2019-02-15T02:57:52.841Z,20.07
2019-02-15T03:02:47.451Z,21.20
2019-02-15T03:07:42.050Z,19.87
2019-02-15T03:12:36.664Z,20.73
2019-02-15T03:17:31.280Z,20.20
2019-02-15T03:22:25.872Z,18.90
2019-02-15T03:27:20.498Z,20.20
2019-02-15T03:32:15.095Z,23.17
2019-02-15T03:37:11.334Z,22.30
2019-02-15T03:42:06.109Z,20.97
2019-02-15T03:47:00.678Z,20.63
2019-02-15T03:51:55.296Z,20.37
2019-02-15T03:56:49.896Z,20.60
2019-02-15T04:01:44.586Z,19.73
2019-02-15T04:06:39.180Z,20.37
2019-02-15T04:11:33.781Z,20.13
2019-02-15T04:16:28.362Z,21.67
2019-02-15T04:21:22.956Z,21.03
2019-02-15T04:26:17.537Z,20.67
2019-02-15T04:31:12.147Z,19.73
2019-02-15T04:36:06.761Z,20.80
2019-02-15T04:41:01.374Z,21.10
2019-02-15T04:45:55.963Z,19.67
2019-02-15T04:50:50.557Z,22.33
2019-02-15T04:55:45.164Z,22.67
2019-02-15T05:00:39.776Z,20.37
2019-02-15T05:05:34.365Z,19.07
2019-02-15T05:10:28.973Z,25.97
2019-02-15T05:15:23.583Z,26.80
2019-02-15T05:20:18.161Z,28.77
2019-02-15T05:25:12.754Z,25.57
2019-02-15T05:30:09.381Z,28.53
2019-02-15T05:35:03.968Z,26.83
2019-02-15T05:39:58.620Z,28.50
2019-02-15T05:45:03.037Z,27.37
2019-02-15T05:49:49.542Z,32.10
2019-02-15T05:54:44.162Z,30.00
2019-02-15T05:59:38.777Z,27.83
2019-02-15T06:04:33.445Z,27.90
2019-02-15T06:09:28.056Z,25.07
2019-02-15T06:14:22.636Z,21.10
2019-02-15T06:19:17.234Z,22.60
2019-02-15T06:24:11.812Z,23.23
2019-02-15T06:29:06.402Z,27.73
2019-02-15T06:34:00.979Z,28.90
2019-02-15T06:38:55.572Z,25.43
2019-02-15T06:43:50.183Z,24.73
2019-02-15T06:48:44.779Z,27.40
2019-02-15T06:53:39.353Z,26.83
2019-02-15T06:58:34.606Z,24.67
2019-02-15T07:03:33.902Z,25.17
2019-02-15T07:08:28.486Z,30.80
2019-02-15T07:13:23.077Z,24.93
2019-02-15T07:18:17.674Z,22.83
2019-02-15T07:23:12.256Z,22.90
2019-02-15T07:28:06.850Z,23.43
2019-02-15T07:33:01.483Z,22.80
2019-02-15T07:37:56.546Z,24.80
2019-02-15T07:42:51.150Z,25.03
2019-02-15T07:47:45.720Z,23.10
2019-02-15T07:52:40.861Z,22.40
2019-02-15T07:57:41.035Z,21.93
2019-02-15T08:02:35.685Z,21.20
2019-02-15T08:07:33.595Z,21.90
2019-02-15T08:12:28.442Z,23.13
2019-02-15T08:17:26.559Z,24.07
2019-02-15T08:22:22.814Z,23.03
2019-02-15T08:27:17.513Z,25.83
2019-02-15T08:32:12.142Z,26.20
2019-02-15T08:37:06.756Z,25.50
2019-02-15T08:42:04.458Z,24.20
2019-02-15T08:46:58.947Z,23.00
2019-02-15T08:51:53.543Z,22.50
2019-02-15T08:56:48.137Z,21.87
2019-02-15T09:01:42.813Z,20.27
2019-02-15T09:06:37.962Z,20.57
2019-02-15T09:11:35.873Z,19.73
2019-02-15T09:16:36.917Z,19.67
2019-02-15T09:21:31.996Z,18.27
2019-02-15T09:26:26.588Z,19.67
2019-02-15T09:31:21.254Z,18.80
2019-02-15T09:36:15.832Z,18.77
2019-02-15T09:41:11.326Z,20.17
2019-02-15T09:46:05.934Z,19.57
2019-02-15T09:51:00.715Z,19.53
2019-02-15T09:55:55.499Z,20.37
2019-02-15T10:01:00.324Z,20.90
2019-02-15T10:05:55.684Z,24.27
2019-02-15T10:10:51.715Z,26.03
2019-02-15T10:15:46.398Z,22.13
2019-02-15T10:20:41.031Z,21.33
2019-02-15T10:25:35.716Z,22.27
2019-02-15T10:30:30.358Z,21.20
2019-02-15T10:35:25.232Z,21.30
2019-02-15T10:40:22.045Z,20.13
2019-02-15T10:45:17.520Z,20.60
2019-02-15T10:50:12.954Z,19.27
2019-02-15T10:55:09.454Z,18.90
2019-02-15T11:00:22.148Z,17.37
2019-02-15T11:05:17.835Z,14.37
2019-02-15T11:10:12.689Z,13.43
2019-02-15T11:15:17.005Z,10.80
2019-02-15T11:20:18.731Z,11.93
2019-02-15T11:25:13.324Z,9.60
2019-02-15T11:30:16.281Z,9.83
2019-02-15T11:35:13.065Z,11.30
2019-02-15T11:40:16.083Z,11.17
2019-02-15T11:45:14.105Z,11.40
2019-02-15T11:50:12.280Z,10.87
2019-02-15T11:55:09.906Z,13.23
2019-02-15T12:00:15.579Z,13.13
2019-02-15T12:05:11.489Z,13.90
2019-02-15T12:10:09.803Z,12.40
2019-02-15T12:15:08.985Z,12.70
2019-02-15T12:20:03.952Z,12.10
2019-02-15T12:24:58.566Z,11.33
2019-02-15T12:29:53.158Z,10.73
2019-02-15T12:34:47.765Z,9.40
2019-02-15T12:39:42.378Z,8.00
2019-02-15T12:44:38.265Z,7.87
2019-02-15T12:49:32.910Z,8.83
2019-02-15T12:54:27.605Z,10.33
2019-02-15T12:59:22.305Z,11.57
2019-02-15T13:04:16.981Z,12.40
2019-02-15T13:09:11.689Z,14.57
2019-02-15T13:14:06.453Z,13.37
2019-02-15T13:19:01.024Z,12.57
2019-02-15T13:23:55.630Z,12.37
2019-02-15T13:28:50.221Z,12.20
2019-02-15T13:33:44.833Z,12.50
2019-02-15T13:38:39.415Z,12.20
2019-02-15T13:43:34.005Z,11.53
2019-02-15T13:48:28.943Z,11.90
2019-02-15T13:53:23.877Z,11.93
2019-02-15T13:58:18.458Z,12.50
2019-02-15T14:03:13.042Z,13.13
2019-02-15T14:08:07.724Z,12.20
2019-02-15T14:13:02.305Z,11.40
2019-02-15T14:17:56.923Z,11.57
2019-02-15T14:22:51.590Z,11.33
2019-02-15T14:27:46.196Z,11.57
2019-02-15T14:32:40.942Z,11.63
2019-02-15T14:37:35.744Z,11.00
2019-02-15T14:42:30.658Z,11.10
2019-02-15T14:47:25.764Z,11.57
2019-02-15T14:52:20.546Z,10.47
2019-02-15T14:57:15.278Z,10.67
2019-02-15T15:02:10.092Z,10.87
2019-02-15T15:07:04.988Z,10.90
2019-02-15T15:11:59.816Z,10.57
2019-02-15T15:16:55.908Z,10.33
2019-02-15T15:21:50.776Z,10.87
2019-02-15T15:26:45.615Z,12.30
2019-02-15T15:31:40.358Z,11.43
2019-02-15T15:36:35.159Z,11.87
2019-02-15T15:41:29.752Z,11.67
2019-02-15T15:46:24.339Z,12.37
2019-02-15T15:51:18.916Z,11.57
2019-02-15T15:56:13.513Z,10.77
2019-02-15T16:01:08.183Z,11.53
2019-02-15T16:06:02.816Z,10.70
2019-02-15T16:10:57.375Z,11.07
2019-02-15T16:15:51.983Z,12.07
2019-02-15T16:20:47.040Z,11.87
2019-02-15T16:25:41.630Z,12.37
2019-02-15T16:30:36.233Z,11.80
2019-02-15T16:35:30.832Z,12.97
2019-02-15T16:40:25.427Z,12.30
2019-02-15T16:45:20.026Z,11.60
2019-02-15T16:50:14.887Z,12.60
2019-02-15T16:55:13.143Z,15.07
2019-02-15T17:00:12.655Z,14.43
2019-02-15T17:05:08.325Z,15.70
2019-02-15T17:10:02.986Z,15.90
2019-02-15T17:14:57.568Z,15.53
2019-02-15T17:19:52.165Z,14.10
2019-02-15T17:24:46.776Z,16.13
2019-02-15T17:29:41.357Z,12.83
2019-02-15T17:34:35.946Z,14.70
2019-02-15T17:39:30.564Z,14.93
2019-02-15T17:44:25.168Z,15.97
2019-02-15T17:49:19.779Z,16.20
2019-02-15T17:54:14.371Z,15.40
2019-02-15T17:59:08.952Z,15.17
2019-02-15T18:04:03.552Z,17.33
2019-02-15T18:08:58.135Z,16.40
2019-02-15T18:13:52.727Z,19.23
2019-02-15T18:18:47.314Z,46.30
2019-02-15T18:23:41.912Z,26.93
2019-02-15T18:28:36.495Z,19.67
2019-02-15T18:33:31.070Z,16.30
2019-02-15T18:38:25.664Z,14.80
2019-02-15T18:43:20.306Z,14.20
2019-02-15T18:48:14.919Z,18.43
2019-02-15T18:53:09.511Z,22.33
2019-02-15T18:58:04.104Z,18.33
2019-02-15T19:02:58.773Z,17.10
2019-02-15T19:07:53.350Z,17.53
2019-02-15T19:12:47.979Z,16.57
2019-02-15T19:17:42.574Z,16.73
2019-02-15T19:22:37.163Z,15.27
2019-02-15T19:27:31.742Z,17.30
2019-02-15T19:32:26.327Z,17.70
2019-02-15T19:37:22.269Z,15.63
2019-02-15T19:42:16.912Z,14.43
2019-02-15T19:47:11.502Z,15.03
2019-02-15T19:52:06.081Z,16.07
2019-02-15T19:57:00.678Z,16.73
2019-02-15T20:01:55.369Z,16.00
2019-02-15T20:06:50.003Z,14.80
2019-02-15T20:11:44.612Z,16.97
2019-02-15T20:16:39.192Z,20.10
2019-02-15T20:21:33.799Z,20.67
2019-02-15T20:26:28.484Z,19.13
2019-02-15T20:31:23.056Z,15.23
2019-02-15T20:36:17.650Z,15.53
2019-02-15T20:41:12.245Z,15.17
2019-02-15T20:46:06.864Z,14.50
2019-02-15T20:51:01.454Z,18.43
2019-02-15T20:55:56.086Z,27.73
2019-02-15T21:00:50.692Z,22.93
2019-02-15T21:05:45.357Z,17.27
2019-02-15T21:10:39.931Z,19.37
2019-02-15T21:15:34.532Z,15.03
2019-02-15T21:20:29.132Z,14.60
2019-02-15T21:25:23.816Z,14.77
2019-02-15T21:30:21.446Z,15.13
2019-02-15T21:35:16.133Z,14.97
2019-02-15T21:40:14.513Z,14.33
2019-02-15T21:45:11.920Z,16.17
2019-02-15T21:50:16.642Z,16.53
2019-02-15T21:55:10.470Z,19.40
2019-02-15T22:00:11.836Z,18.37
2019-02-15T22:05:07.684Z,17.93
2019-02-15T22:10:02.276Z,16.77
2019-02-15T22:14:56.878Z,21.00
2019-02-15T22:19:51.463Z,23.07
2019-02-15T22:24:46.050Z,21.57
2019-02-15T22:29:40.650Z,21.10
2019-02-15T22:34:35.248Z,20.30
2019-02-15T22:39:29.832Z,20.20
2019-02-15T22:44:24.504Z,20.00
2019-02-15T22:49:19.099Z,21.23
2019-02-15T22:54:13.686Z,19.33
2019-02-15T22:59:08.289Z,20.13
2019-02-15T23:04:02.882Z,18.07
2019-02-15T23:08:57.628Z,18.23
2019-02-15T23:13:52.237Z,18.80
2019-02-15T23:18:47.072Z,17.53
2019-02-15T23:23:41.694Z,18.43
2019-02-15T23:28:36.294Z,18.53
2019-02-15T23:33:30.904Z,19.77
2019-02-15T23:38:25.500Z,17.00
2019-02-15T23:43:20.087Z,18.00
2019-02-15T23:48:14.673Z,18.00
2019-02-15T23:53:09.289Z,18.27
2019-02-15T23:58:03.954Z,18.03
